sensor_id;sensor_type;location;lat;lon;timestamp;P1;durP1;ratioP1;P2;durP2;ratioP2
52738;SDS011;52466;40.122;18.318;2022-08-25T00:00:03;118.00;;;69.20;;
52738;SDS011;52466;40.122;18.318;2022-08-25T00:03:12;115.85;;;69.90;;
52738;SDS011;52466;40.122;18.318;2022-08-25T00:06:21;118.50;;;70.28;;
52738;SDS011;52466;40.122;18.318;2022-08-25T00:09:29;121.45;;;69.47;;
52738;SDS011;52466;40.122;18.318;2022-08-25T00:12:38;116.80;;;70.05;;
52738;SDS011;52466;40.122;18.318;2022-08-25T00:15:46;118.93;;;70.10;;
52738;SDS011;52466;40.122;18.318;2022-08-25T00:18:55;118.25;;;68.88;;
52738;SDS011;52466;40.122;18.318;2022-08-25T00:22:04;118.63;;;68.47;;
52738;SDS011;52466;40.122;18.318;2022-08-25T00:25:13;116.25;;;68.82;;
52738;SDS011;52466;40.122;18.318;2022-08-25T00:28:20;118.90;;;69.28;;
52738;SDS011;52466;40.122;18.318;2022-08-25T00:31:28;116.95;;;67.63;;
52738;SDS011;52466;40.122;18.318;2022-08-25T00:34:37;121.28;;;68.50;;
52738;SDS011;52466;40.122;18.318;2022-08-25T00:37:44;113.78;;;67.65;;
52738;SDS011;52466;40.122;18.318;2022-08-25T00:40:52;115.63;;;67.22;;
52738;SDS011;52466;40.122;18.318;2022-08-25T00:44:12;116.93;;;67.80;;
52738;SDS011;52466;40.122;18.318;2022-08-25T00:47:23;115.72;;;67.00;;
52738;SDS011;52466;40.122;18.318;2022-08-25T00:50:31;111.63;;;66.88;;
52738;SDS011;52466;40.122;18.318;2022-08-25T00:53:40;115.45;;;66.25;;
52738;SDS011;52466;40.122;18.318;2022-08-25T00:56:49;115.55;;;65.88;;
52738;SDS011;52466;40.122;18.318;2022-08-25T00:59:58;115.97;;;65.85;;
52738;SDS011;52466;40.122;18.318;2022-08-25T01:03:06;113.13;;;66.00;;
52738;SDS011;52466;40.122;18.318;2022-08-25T01:06:14;109.93;;;65.35;;
52738;SDS011;52466;40.122;18.318;2022-08-25T01:09:22;115.15;;;65.03;;
52738;SDS011;52466;40.122;18.318;2022-08-25T01:12:29;111.53;;;65.50;;
52738;SDS011;52466;40.122;18.318;2022-08-25T01:15:37;115.47;;;64.28;;
52738;SDS011;52466;40.122;18.318;2022-08-25T01:18:49;107.10;;;64.00;;
52738;SDS011;52466;40.122;18.318;2022-08-25T01:22:00;108.40;;;64.97;;
52738;SDS011;52466;40.122;18.318;2022-08-25T01:28:48;113.60;;;64.68;;
52738;SDS011;52466;40.122;18.318;2022-08-25T01:32:15;113.00;;;63.67;;
52738;SDS011;52466;40.122;18.318;2022-08-25T01:35:23;108.13;;;64.68;;
52738;SDS011;52466;40.122;18.318;2022-08-25T01:38:30;110.30;;;63.47;;
52738;SDS011;52466;40.122;18.318;2022-08-25T01:45:09;110.18;;;63.72;;
52738;SDS011;52466;40.122;18.318;2022-08-25T01:48:16;107.38;;;63.60;;
52738;SDS011;52466;40.122;18.318;2022-08-25T01:51:25;109.82;;;64.10;;
52738;SDS011;52466;40.122;18.318;2022-08-25T01:57:46;107.47;;;62.63;;
52738;SDS011;52466;40.122;18.318;2022-08-25T02:00:55;111.07;;;63.42;;
52738;SDS011;52466;40.122;18.318;2022-08-25T02:04:04;113.95;;;62.72;;
52738;SDS011;52466;40.122;18.318;2022-08-25T02:07:13;109.45;;;63.28;;
52738;SDS011;52466;40.122;18.318;2022-08-25T02:10:21;107.72;;;62.22;;
52738;SDS011;52466;40.122;18.318;2022-08-25T02:13:29;110.43;;;62.10;;
52738;SDS011;52466;40.122;18.318;2022-08-25T02:16:38;111.68;;;62.83;;
52738;SDS011;52466;40.122;18.318;2022-08-25T02:19:47;110.97;;;61.95;;
52738;SDS011;52466;40.122;18.318;2022-08-25T02:22:54;115.45;;;62.15;;
52738;SDS011;52466;40.122;18.318;2022-08-25T02:26:03;108.32;;;60.97;;
52738;SDS011;52466;40.122;18.318;2022-08-25T02:29:11;108.13;;;61.33;;
52738;SDS011;52466;40.122;18.318;2022-08-25T02:32:19;116.32;;;62.38;;
52738;SDS011;52466;40.122;18.318;2022-08-25T02:35:27;108.32;;;60.60;;
52738;SDS011;52466;40.122;18.318;2022-08-25T02:38:35;109.40;;;61.03;;
52738;SDS011;52466;40.122;18.318;2022-08-25T02:41:44;107.68;;;61.60;;
52738;SDS011;52466;40.122;18.318;2022-08-25T02:44:52;110.72;;;60.38;;
52738;SDS011;52466;40.122;18.318;2022-08-25T02:47:59;113.18;;;61.17;;
52738;SDS011;52466;40.122;18.318;2022-08-25T02:51:08;109.43;;;60.70;;
52738;SDS011;52466;40.122;18.318;2022-08-25T02:54:16;108.63;;;60.95;;
52738;SDS011;52466;40.122;18.318;2022-08-25T02:57:24;112.53;;;59.67;;
52738;SDS011;52466;40.122;18.318;2022-08-25T03:00:31;110.60;;;60.55;;
52738;SDS011;52466;40.122;18.318;2022-08-25T03:03:39;109.82;;;59.80;;
52738;SDS011;52466;40.122;18.318;2022-08-25T03:06:48;113.32;;;60.08;;
52738;SDS011;52466;40.122;18.318;2022-08-25T03:09:56;108.78;;;59.90;;
52738;SDS011;52466;40.122;18.318;2022-08-25T03:13:04;107.53;;;60.72;;
52738;SDS011;52466;40.122;18.318;2022-08-25T03:16:11;107.43;;;59.55;;
52738;SDS011;52466;40.122;18.318;2022-08-25T03:19:19;101.72;;;59.38;;
52738;SDS011;52466;40.122;18.318;2022-08-25T03:22:27;108.40;;;60.33;;
52738;SDS011;52466;40.122;18.318;2022-08-25T03:25:35;109.25;;;60.42;;
52738;SDS011;52466;40.122;18.318;2022-08-25T03:29:04;105.32;;;60.65;;
52738;SDS011;52466;40.122;18.318;2022-08-25T03:32:12;108.72;;;60.17;;
52738;SDS011;52466;40.122;18.318;2022-08-25T03:35:20;112.68;;;60.85;;
52738;SDS011;52466;40.122;18.318;2022-08-25T03:38:28;108.18;;;60.45;;
52738;SDS011;52466;40.122;18.318;2022-08-25T03:41:36;109.32;;;59.15;;
52738;SDS011;52466;40.122;18.318;2022-08-25T03:44:44;109.40;;;59.90;;
52738;SDS011;52466;40.122;18.318;2022-08-25T03:47:52;112.93;;;60.92;;
52738;SDS011;52466;40.122;18.318;2022-08-25T03:51:00;104.50;;;59.80;;
52738;SDS011;52466;40.122;18.318;2022-08-25T03:54:08;114.05;;;61.20;;
52738;SDS011;52466;40.122;18.318;2022-08-25T03:57:16;107.88;;;59.80;;
52738;SDS011;52466;40.122;18.318;2022-08-25T04:00:26;107.30;;;60.25;;
52738;SDS011;52466;40.122;18.318;2022-08-25T04:03:34;115.97;;;60.67;;
52738;SDS011;52466;40.122;18.318;2022-08-25T04:06:42;109.28;;;59.50;;
52738;SDS011;52466;40.122;18.318;2022-08-25T04:09:52;109.93;;;60.72;;
52738;SDS011;52466;40.122;18.318;2022-08-25T04:13:00;108.55;;;60.22;;
52738;SDS011;52466;40.122;18.318;2022-08-25T04:16:09;112.47;;;60.95;;
52738;SDS011;52466;40.122;18.318;2022-08-25T04:19:19;114.05;;;60.92;;
52738;SDS011;52466;40.122;18.318;2022-08-25T04:22:27;113.55;;;60.08;;
52738;SDS011;52466;40.122;18.318;2022-08-25T04:25:38;108.80;;;60.45;;
52738;SDS011;52466;40.122;18.318;2022-08-25T04:28:48;113.55;;;59.72;;
52738;SDS011;52466;40.122;18.318;2022-08-25T04:31:56;108.40;;;60.55;;
52738;SDS011;52466;40.122;18.318;2022-08-25T04:35:03;112.57;;;60.35;;
52738;SDS011;52466;40.122;18.318;2022-08-25T04:38:12;105.75;;;60.30;;
52738;SDS011;52466;40.122;18.318;2022-08-25T04:41:21;110.72;;;60.45;;
52738;SDS011;52466;40.122;18.318;2022-08-25T04:44:30;113.55;;;61.20;;
52738;SDS011;52466;40.122;18.318;2022-08-25T04:47:38;117.25;;;61.20;;
52738;SDS011;52466;40.122;18.318;2022-08-25T04:50:46;109.95;;;60.53;;
52738;SDS011;52466;40.122;18.318;2022-08-25T04:53:54;114.22;;;61.45;;
52738;SDS011;52466;40.122;18.318;2022-08-25T04:57:04;113.25;;;61.58;;
52738;SDS011;52466;40.122;18.318;2022-08-25T05:00:12;108.32;;;61.35;;
52738;SDS011;52466;40.122;18.318;2022-08-25T05:03:16;115.82;;;62.22;;
52738;SDS011;52466;40.122;18.318;2022-08-25T05:06:24;111.53;;;62.33;;
52738;SDS011;52466;40.122;18.318;2022-08-25T05:09:33;115.60;;;62.83;;
52738;SDS011;52466;40.122;18.318;2022-08-25T05:12:41;112.80;;;62.13;;
52738;SDS011;52466;40.122;18.318;2022-08-25T05:15:53;110.45;;;62.42;;
52738;SDS011;52466;40.122;18.318;2022-08-25T05:19:01;111.57;;;61.92;;
52738;SDS011;52466;40.122;18.318;2022-08-25T05:22:10;110.53;;;62.30;;
52738;SDS011;52466;40.122;18.318;2022-08-25T05:25:19;115.45;;;62.17;;
52738;SDS011;52466;40.122;18.318;2022-08-25T05:28:27;111.43;;;61.80;;
52738;SDS011;52466;40.122;18.318;2022-08-25T05:31:34;108.80;;;62.47;;
52738;SDS011;52466;40.122;18.318;2022-08-25T05:34:42;117.65;;;63.28;;
52738;SDS011;52466;40.122;18.318;2022-08-25T05:37:50;117.20;;;62.67;;
52738;SDS011;52466;40.122;18.318;2022-08-25T05:40:58;112.78;;;61.78;;
52738;SDS011;52466;40.122;18.318;2022-08-25T05:44:09;112.47;;;62.58;;
52738;SDS011;52466;40.122;18.318;2022-08-25T05:47:18;111.85;;;62.00;;
52738;SDS011;52466;40.122;18.318;2022-08-25T05:50:26;112.32;;;62.00;;
52738;SDS011;52466;40.122;18.318;2022-08-25T05:53:34;112.38;;;62.72;;
52738;SDS011;52466;40.122;18.318;2022-08-25T05:56:42;112.97;;;62.30;;
52738;SDS011;52466;40.122;18.318;2022-08-25T05:59:51;113.35;;;61.65;;
52738;SDS011;52466;40.122;18.318;2022-08-25T06:02:58;113.20;;;61.83;;
52738;SDS011;52466;40.122;18.318;2022-08-25T06:06:06;109.93;;;61.42;;
52738;SDS011;52466;40.122;18.318;2022-08-25T06:09:14;107.80;;;61.35;;
52738;SDS011;52466;40.122;18.318;2022-08-25T06:12:22;113.15;;;62.17;;
52738;SDS011;52466;40.122;18.318;2022-08-25T06:15:30;112.10;;;62.42;;
52738;SDS011;52466;40.122;18.318;2022-08-25T06:18:38;109.55;;;62.30;;
52738;SDS011;52466;40.122;18.318;2022-08-25T06:21:45;109.07;;;62.13;;
52738;SDS011;52466;40.122;18.318;2022-08-25T06:24:53;110.20;;;61.85;;
52738;SDS011;52466;40.122;18.318;2022-08-25T06:28:02;112.80;;;62.13;;
52738;SDS011;52466;40.122;18.318;2022-08-25T06:31:10;110.45;;;61.33;;
52738;SDS011;52466;40.122;18.318;2022-08-25T06:34:18;112.57;;;62.17;;
52738;SDS011;52466;40.122;18.318;2022-08-25T06:37:27;112.32;;;62.83;;
52738;SDS011;52466;40.122;18.318;2022-08-25T06:40:35;108.10;;;61.67;;
52738;SDS011;52466;40.122;18.318;2022-08-25T06:43:42;112.85;;;62.25;;
52738;SDS011;52466;40.122;18.318;2022-08-25T06:46:51;110.55;;;61.92;;
52738;SDS011;52466;40.122;18.318;2022-08-25T06:49:59;114.63;;;62.80;;
52738;SDS011;52466;40.122;18.318;2022-08-25T06:53:10;119.45;;;62.53;;
52738;SDS011;52466;40.122;18.318;2022-08-25T06:56:20;110.32;;;61.95;;
52738;SDS011;52466;40.122;18.318;2022-08-25T06:59:28;116.43;;;62.28;;
52738;SDS011;52466;40.122;18.318;2022-08-25T07:02:36;112.55;;;62.88;;
52738;SDS011;52466;40.122;18.318;2022-08-25T07:05:40;112.30;;;63.13;;
52738;SDS011;52466;40.122;18.318;2022-08-25T07:08:48;110.30;;;62.33;;
52738;SDS011;52466;40.122;18.318;2022-08-25T07:11:56;110.80;;;63.22;;
52738;SDS011;52466;40.122;18.318;2022-08-25T07:14:59;109.65;;;63.60;;
52738;SDS011;52466;40.122;18.318;2022-08-25T07:18:07;110.65;;;62.55;;
52738;SDS011;52466;40.122;18.318;2022-08-25T07:21:11;111.65;;;63.47;;
52738;SDS011;52466;40.122;18.318;2022-08-25T07:24:21;110.53;;;63.35;;
52738;SDS011;52466;40.122;18.318;2022-08-25T07:27:29;112.82;;;63.75;;
52738;SDS011;52466;40.122;18.318;2022-08-25T07:30:37;116.80;;;64.10;;
52738;SDS011;52466;40.122;18.318;2022-08-25T07:33:45;112.53;;;64.20;;
52738;SDS011;52466;40.122;18.318;2022-08-25T07:37:12;114.50;;;63.88;;
52738;SDS011;52466;40.122;18.318;2022-08-25T07:40:27;115.88;;;65.80;;
52738;SDS011;52466;40.122;18.318;2022-08-25T07:43:37;109.28;;;64.18;;
52738;SDS011;52466;40.122;18.318;2022-08-25T07:46:45;111.65;;;64.20;;
52738;SDS011;52466;40.122;18.318;2022-08-25T07:49:53;112.95;;;65.07;;
52738;SDS011;52466;40.122;18.318;2022-08-25T07:53:01;112.20;;;65.18;;
52738;SDS011;52466;40.122;18.318;2022-08-25T07:56:12;110.88;;;65.07;;
52738;SDS011;52466;40.122;18.318;2022-08-25T07:59:22;114.40;;;64.97;;
52738;SDS011;52466;40.122;18.318;2022-08-25T08:02:29;114.55;;;65.18;;
52738;SDS011;52466;40.122;18.318;2022-08-25T08:05:41;112.53;;;65.25;;
52738;SDS011;52466;40.122;18.318;2022-08-25T08:08:44;109.07;;;64.50;;
52738;SDS011;52466;40.122;18.318;2022-08-25T08:11:55;112.60;;;65.90;;
52738;SDS011;52466;40.122;18.318;2022-08-25T08:15:04;110.63;;;65.57;;
52738;SDS011;52466;40.122;18.318;2022-08-25T08:18:13;114.43;;;66.68;;
52738;SDS011;52466;40.122;18.318;2022-08-25T08:21:23;114.18;;;65.65;;
52738;SDS011;52466;40.122;18.318;2022-08-25T08:24:30;111.47;;;66.32;;
52738;SDS011;52466;40.122;18.318;2022-08-25T08:27:38;108.57;;;65.43;;
52738;SDS011;52466;40.122;18.318;2022-08-25T08:30:47;114.43;;;65.55;;
52738;SDS011;52466;40.122;18.318;2022-08-25T08:33:56;114.75;;;67.22;;
52738;SDS011;52466;40.122;18.318;2022-08-25T08:37:05;119.38;;;67.63;;
52738;SDS011;52466;40.122;18.318;2022-08-25T08:40:14;113.13;;;66.50;;
52738;SDS011;52466;40.122;18.318;2022-08-25T08:43:24;111.75;;;67.20;;
52738;SDS011;52466;40.122;18.318;2022-08-25T08:50:36;115.22;;;67.22;;
52738;SDS011;52466;40.122;18.318;2022-08-25T08:53:58;114.22;;;68.03;;
52738;SDS011;52466;40.122;18.318;2022-08-25T08:57:17;115.47;;;68.28;;
52738;SDS011;52466;40.122;18.318;2022-08-25T09:00:29;115.82;;;68.00;;
52738;SDS011;52466;40.122;18.318;2022-08-25T09:03:43;115.47;;;67.85;;
52738;SDS011;52466;40.122;18.318;2022-08-25T09:06:58;121.38;;;67.65;;
52738;SDS011;52466;40.122;18.318;2022-08-25T09:10:10;113.07;;;68.03;;
52738;SDS011;52466;40.122;18.318;2022-08-25T09:30:25;117.72;;;68.32;;
52738;SDS011;52466;40.122;18.318;2022-08-25T09:33:35;117.53;;;67.30;;
52738;SDS011;52466;40.122;18.318;2022-08-25T09:36:43;111.53;;;66.82;;
52738;SDS011;52466;40.122;18.318;2022-08-25T09:39:54;114.53;;;68.07;;
52738;SDS011;52466;40.122;18.318;2022-08-25T09:43:18;115.38;;;67.25;;
52738;SDS011;52466;40.122;18.318;2022-08-25T09:46:35;113.30;;;67.63;;
52738;SDS011;52466;40.122;18.318;2022-08-25T09:49:44;113.72;;;66.43;;
52738;SDS011;52466;40.122;18.318;2022-08-25T09:53:12;113.63;;;66.80;;
52738;SDS011;52466;40.122;18.318;2022-08-25T09:56:23;114.50;;;67.40;;
52738;SDS011;52466;40.122;18.318;2022-08-25T09:59:34;116.88;;;67.05;;
52738;SDS011;52466;40.122;18.318;2022-08-25T10:02:44;113.38;;;66.15;;
52738;SDS011;52466;40.122;18.318;2022-08-25T10:06:08;117.55;;;67.28;;
52738;SDS011;52466;40.122;18.318;2022-08-25T10:09:22;114.93;;;68.32;;
52738;SDS011;52466;40.122;18.318;2022-08-25T10:12:41;117.47;;;67.57;;
52738;SDS011;52466;40.122;18.318;2022-08-25T10:16:04;118.93;;;67.80;;
52738;SDS011;52466;40.122;18.318;2022-08-25T10:19:22;113.07;;;66.53;;
52738;SDS011;52466;40.122;18.318;2022-08-25T10:22:33;118.82;;;67.75;;
52738;SDS011;52466;40.122;18.318;2022-08-25T10:25:43;111.63;;;67.07;;
52738;SDS011;52466;40.122;18.318;2022-08-25T10:32:03;115.05;;;67.60;;
52738;SDS011;52466;40.122;18.318;2022-08-25T10:38:36;118.57;;;69.03;;
52738;SDS011;52466;40.122;18.318;2022-08-25T10:52:02;116.70;;;67.97;;
52738;SDS011;52466;40.122;18.318;2022-08-25T10:55:19;110.68;;;67.40;;
52738;SDS011;52466;40.122;18.318;2022-08-25T11:05:59;112.80;;;65.63;;
52738;SDS011;52466;40.122;18.318;2022-08-25T11:09:12;115.38;;;67.38;;
52738;SDS011;52466;40.122;18.318;2022-08-25T11:12:31;122.68;;;68.32;;
52738;SDS011;52466;40.122;18.318;2022-08-25T11:15:52;117.35;;;68.00;;
52738;SDS011;52466;40.122;18.318;2022-08-25T11:22:21;116.10;;;67.82;;
52738;SDS011;52466;40.122;18.318;2022-08-25T11:25:41;111.90;;;68.60;;
52738;SDS011;52466;40.122;18.318;2022-08-25T11:29:15;114.03;;;67.97;;
52738;SDS011;52466;40.122;18.318;2022-08-25T11:32:25;118.53;;;66.28;;
52738;SDS011;52466;40.122;18.318;2022-08-25T11:55:45;105.20;;;62.65;;
52738;SDS011;52466;40.122;18.318;2022-08-25T11:58:55;109.53;;;62.47;;
52738;SDS011;52466;40.122;18.318;2022-08-25T12:02:04;105.45;;;62.30;;
52738;SDS011;52466;40.122;18.318;2022-08-25T12:08:46;104.88;;;62.38;;
52738;SDS011;52466;40.122;18.318;2022-08-25T12:11:57;105.05;;;62.35;;
52738;SDS011;52466;40.122;18.318;2022-08-25T12:18:38;108.30;;;63.38;;
52738;SDS011;52466;40.122;18.318;2022-08-25T12:21:49;104.72;;;62.90;;
52738;SDS011;52466;40.122;18.318;2022-08-25T12:25:07;110.88;;;63.55;;
52738;SDS011;52466;40.122;18.318;2022-08-25T12:32:22;114.63;;;66.07;;
52738;SDS011;52466;40.122;18.318;2022-08-25T12:35:57;111.35;;;66.18;;
52738;SDS011;52466;40.122;18.318;2022-08-25T12:39:15;113.22;;;67.22;;
52738;SDS011;52466;40.122;18.318;2022-08-25T12:42:40;111.80;;;65.80;;
52738;SDS011;52466;40.122;18.318;2022-08-25T12:45:50;114.13;;;66.38;;
52738;SDS011;52466;40.122;18.318;2022-08-25T12:52:35;111.35;;;67.53;;
52738;SDS011;52466;40.122;18.318;2022-08-25T12:55:46;116.53;;;68.50;;
52738;SDS011;52466;40.122;18.318;2022-08-25T13:05:54;118.28;;;68.47;;
52738;SDS011;52466;40.122;18.318;2022-08-25T13:15:58;117.68;;;67.15;;
52738;SDS011;52466;40.122;18.318;2022-08-25T13:19:03;111.05;;;66.60;;
52738;SDS011;52466;40.122;18.318;2022-08-25T13:22:13;118.00;;;68.43;;
52738;SDS011;52466;40.122;18.318;2022-08-25T13:25:24;114.47;;;68.15;;
52738;SDS011;52466;40.122;18.318;2022-08-25T13:28:36;112.57;;;66.38;;
52738;SDS011;52466;40.122;18.318;2022-08-25T13:31:59;116.50;;;66.53;;
52738;SDS011;52466;40.122;18.318;2022-08-25T13:38:25;112.45;;;66.82;;
52738;SDS011;52466;40.122;18.318;2022-08-25T13:41:34;112.75;;;66.80;;
52738;SDS011;52466;40.122;18.318;2022-08-25T13:44:42;112.65;;;66.75;;
52738;SDS011;52466;40.122;18.318;2022-08-25T13:47:50;118.32;;;67.65;;
52738;SDS011;52466;40.122;18.318;2022-08-25T13:51:14;113.53;;;67.63;;
52738;SDS011;52466;40.122;18.318;2022-08-25T13:54:25;114.35;;;67.63;;
52738;SDS011;52466;40.122;18.318;2022-08-25T13:57:41;110.82;;;66.30;;
52738;SDS011;52466;40.122;18.318;2022-08-25T14:07:38;111.47;;;65.77;;
52738;SDS011;52466;40.122;18.318;2022-08-25T14:10:46;107.55;;;64.15;;
52738;SDS011;52466;40.122;18.318;2022-08-25T14:14:02;105.53;;;64.78;;
52738;SDS011;52466;40.122;18.318;2022-08-25T14:17:14;110.82;;;65.63;;
52738;SDS011;52466;40.122;18.318;2022-08-25T14:20:25;109.68;;;65.05;;
52738;SDS011;52466;40.122;18.318;2022-08-25T14:23:35;107.38;;;64.70;;
52738;SDS011;52466;40.122;18.318;2022-08-25T14:26:44;111.18;;;65.05;;
52738;SDS011;52466;40.122;18.318;2022-08-25T14:29:53;110.03;;;65.63;;
52738;SDS011;52466;40.122;18.318;2022-08-25T14:33:01;109.28;;;65.85;;
52738;SDS011;52466;40.122;18.318;2022-08-25T14:36:10;112.60;;;65.28;;
52738;SDS011;52466;40.122;18.318;2022-08-25T14:39:19;111.68;;;65.63;;
52738;SDS011;52466;40.122;18.318;2022-08-25T14:42:27;110.13;;;65.53;;
52738;SDS011;52466;40.122;18.318;2022-08-25T14:45:37;108.82;;;65.90;;
52738;SDS011;52466;40.122;18.318;2022-08-25T14:48:49;110.27;;;66.10;;
52738;SDS011;52466;40.122;18.318;2022-08-25T14:55:12;107.82;;;65.72;;
52738;SDS011;52466;40.122;18.318;2022-08-25T14:58:21;111.60;;;65.95;;
52738;SDS011;52466;40.122;18.318;2022-08-25T15:01:30;116.20;;;66.95;;
52738;SDS011;52466;40.122;18.318;2022-08-25T15:07:41;113.07;;;65.60;;
52738;SDS011;52466;40.122;18.318;2022-08-25T15:11:08;112.28;;;66.07;;
52738;SDS011;52466;40.122;18.318;2022-08-25T15:14:18;114.82;;;65.07;;
52738;SDS011;52466;40.122;18.318;2022-08-25T15:17:28;110.15;;;65.38;;
52738;SDS011;52466;40.122;18.318;2022-08-25T15:20:37;115.63;;;67.63;;
52738;SDS011;52466;40.122;18.318;2022-08-25T15:26:49;113.43;;;68.68;;
52738;SDS011;52466;40.122;18.318;2022-08-25T15:30:03;112.68;;;67.03;;
52738;SDS011;52466;40.122;18.318;2022-08-25T15:33:11;113.85;;;67.47;;
52738;SDS011;52466;40.122;18.318;2022-08-25T15:36:31;113.05;;;68.00;;
52738;SDS011;52466;40.122;18.318;2022-08-25T15:39:40;113.97;;;67.50;;
52738;SDS011;52466;40.122;18.318;2022-08-25T15:42:50;116.40;;;68.30;;
52738;SDS011;52466;40.122;18.318;2022-08-25T15:45:57;114.68;;;68.13;;
52738;SDS011;52466;40.122;18.318;2022-08-25T15:49:05;114.88;;;67.80;;
52738;SDS011;52466;40.122;18.318;2022-08-25T15:52:13;118.40;;;67.45;;
52738;SDS011;52466;40.122;18.318;2022-08-25T15:59:36;100.20;;;61.47;;
52738;SDS011;52466;40.122;18.318;2022-08-25T16:02:44;112.53;;;68.00;;
52738;SDS011;52466;40.122;18.318;2022-08-25T16:05:51;114.22;;;67.15;;
52738;SDS011;52466;40.122;18.318;2022-08-25T16:08:59;115.55;;;67.32;;
52738;SDS011;52466;40.122;18.318;2022-08-25T16:12:08;116.43;;;68.05;;
52738;SDS011;52466;40.122;18.318;2022-08-25T16:15:16;116.03;;;68.20;;
52738;SDS011;52466;40.122;18.318;2022-08-25T16:18:24;113.70;;;67.97;;
52738;SDS011;52466;40.122;18.318;2022-08-25T16:21:33;113.13;;;67.70;;
52738;SDS011;52466;40.122;18.318;2022-08-25T16:24:43;114.25;;;68.75;;
52738;SDS011;52466;40.122;18.318;2022-08-25T16:27:51;112.28;;;67.35;;
52738;SDS011;52466;40.122;18.318;2022-08-25T16:30:59;112.10;;;66.90;;
52738;SDS011;52466;40.122;18.318;2022-08-25T16:34:07;114.85;;;68.20;;
52738;SDS011;52466;40.122;18.318;2022-08-25T16:37:15;117.10;;;67.60;;
52738;SDS011;52466;40.122;18.318;2022-08-25T16:40:23;115.88;;;67.50;;
52738;SDS011;52466;40.122;18.318;2022-08-25T16:43:32;114.30;;;67.85;;
52738;SDS011;52466;40.122;18.318;2022-08-25T16:46:40;113.15;;;66.43;;
52738;SDS011;52466;40.122;18.318;2022-08-25T16:49:48;118.97;;;67.28;;
52738;SDS011;52466;40.122;18.318;2022-08-25T16:52:57;124.63;;;68.60;;
52738;SDS011;52466;40.122;18.318;2022-08-25T16:56:23;114.47;;;67.18;;
52738;SDS011;52466;40.122;18.318;2022-08-25T16:59:31;118.55;;;67.95;;
52738;SDS011;52466;40.122;18.318;2022-08-25T17:02:39;116.60;;;67.60;;
52738;SDS011;52466;40.122;18.318;2022-08-25T17:05:47;113.07;;;68.40;;
52738;SDS011;52466;40.122;18.318;2022-08-25T17:08:55;120.70;;;68.13;;
52738;SDS011;52466;40.122;18.318;2022-08-25T17:12:03;113.47;;;66.95;;
52738;SDS011;52466;40.122;18.318;2022-08-25T17:15:11;114.63;;;67.90;;
52738;SDS011;52466;40.122;18.318;2022-08-25T17:18:18;114.82;;;68.80;;
52738;SDS011;52466;40.122;18.318;2022-08-25T17:21:21;111.93;;;67.70;;
52738;SDS011;52466;40.122;18.318;2022-08-25T17:24:32;116.35;;;68.45;;
52738;SDS011;52466;40.122;18.318;2022-08-25T17:27:40;112.93;;;67.05;;
52738;SDS011;52466;40.122;18.318;2022-08-25T17:30:48;116.82;;;68.05;;
52738;SDS011;52466;40.122;18.318;2022-08-25T17:33:58;116.50;;;68.80;;
52738;SDS011;52466;40.122;18.318;2022-08-25T17:37:09;116.20;;;67.75;;
52738;SDS011;52466;40.122;18.318;2022-08-25T17:40:17;117.70;;;68.65;;
52738;SDS011;52466;40.122;18.318;2022-08-25T17:43:25;116.38;;;68.18;;
52738;SDS011;52466;40.122;18.318;2022-08-25T17:46:34;114.18;;;68.75;;
52738;SDS011;52466;40.122;18.318;2022-08-25T17:49:42;118.68;;;71.10;;
52738;SDS011;52466;40.122;18.318;2022-08-25T17:52:50;118.93;;;70.70;;
52738;SDS011;52466;40.122;18.318;2022-08-25T17:56:00;112.45;;;70.28;;
52738;SDS011;52466;40.122;18.318;2022-08-25T17:59:11;116.50;;;69.63;;
52738;SDS011;52466;40.122;18.318;2022-08-25T18:02:19;113.97;;;69.30;;
52738;SDS011;52466;40.122;18.318;2022-08-25T18:05:26;117.20;;;68.55;;
52738;SDS011;52466;40.122;18.318;2022-08-25T18:08:34;114.80;;;68.72;;
52738;SDS011;52466;40.122;18.318;2022-08-25T18:11:42;114.38;;;68.75;;
52738;SDS011;52466;40.122;18.318;2022-08-25T18:14:49;113.50;;;68.28;;
52738;SDS011;52466;40.122;18.318;2022-08-25T18:17:57;115.53;;;67.68;;
52738;SDS011;52466;40.122;18.318;2022-08-25T18:21:09;110.68;;;66.63;;
52738;SDS011;52466;40.122;18.318;2022-08-25T18:24:22;113.13;;;66.85;;
52738;SDS011;52466;40.122;18.318;2022-08-25T18:27:30;112.40;;;66.40;;
52738;SDS011;52466;40.122;18.318;2022-08-25T18:30:38;121.45;;;68.85;;
52738;SDS011;52466;40.122;18.318;2022-08-25T18:33:46;115.18;;;67.93;;
52738;SDS011;52466;40.122;18.318;2022-08-25T18:36:54;118.18;;;67.90;;
52738;SDS011;52466;40.122;18.318;2022-08-25T18:40:02;111.72;;;67.78;;
52738;SDS011;52466;40.122;18.318;2022-08-25T18:43:29;111.97;;;66.68;;
52738;SDS011;52466;40.122;18.318;2022-08-25T18:46:37;110.70;;;66.75;;
52738;SDS011;52466;40.122;18.318;2022-08-25T18:49:47;111.32;;;66.53;;
52738;SDS011;52466;40.122;18.318;2022-08-25T18:52:55;111.28;;;67.00;;
52738;SDS011;52466;40.122;18.318;2022-08-25T18:56:04;111.35;;;66.18;;
52738;SDS011;52466;40.122;18.318;2022-08-25T18:59:16;110.95;;;66.07;;
52738;SDS011;52466;40.122;18.318;2022-08-25T19:02:25;109.80;;;66.35;;
52738;SDS011;52466;40.122;18.318;2022-08-25T19:05:35;113.90;;;66.55;;
52738;SDS011;52466;40.122;18.318;2022-08-25T19:08:45;112.68;;;66.30;;
52738;SDS011;52466;40.122;18.318;2022-08-25T19:11:53;114.90;;;65.70;;
52738;SDS011;52466;40.122;18.318;2022-08-25T19:15:01;111.95;;;66.38;;
52738;SDS011;52466;40.122;18.318;2022-08-25T19:18:09;115.00;;;67.05;;
52738;SDS011;52466;40.122;18.318;2022-08-25T19:21:18;112.63;;;65.95;;
52738;SDS011;52466;40.122;18.318;2022-08-25T19:24:29;117.57;;;66.82;;
52738;SDS011;52466;40.122;18.318;2022-08-25T19:27:37;112.10;;;66.47;;
52738;SDS011;52466;40.122;18.318;2022-08-25T19:30:46;111.05;;;65.10;;
52738;SDS011;52466;40.122;18.318;2022-08-25T19:33:54;112.40;;;66.05;;
52738;SDS011;52466;40.122;18.318;2022-08-25T19:37:05;112.07;;;65.72;;
52738;SDS011;52466;40.122;18.318;2022-08-25T19:40:13;111.65;;;65.25;;
52738;SDS011;52466;40.122;18.318;2022-08-25T19:43:21;109.75;;;65.95;;
52738;SDS011;52466;40.122;18.318;2022-08-25T19:46:31;108.55;;;65.78;;
52738;SDS011;52466;40.122;18.318;2022-08-25T19:49:40;109.78;;;65.65;;
52738;SDS011;52466;40.122;18.318;2022-08-25T19:52:48;111.75;;;65.47;;
52738;SDS011;52466;40.122;18.318;2022-08-25T19:55:56;110.30;;;65.00;;
52738;SDS011;52466;40.122;18.318;2022-08-25T19:59:05;107.35;;;63.92;;
52738;SDS011;52466;40.122;18.318;2022-08-25T20:02:19;107.82;;;64.20;;
52738;SDS011;52466;40.122;18.318;2022-08-25T20:05:30;113.78;;;64.38;;
52738;SDS011;52466;40.122;18.318;2022-08-25T20:08:39;109.60;;;62.75;;